sensor_id;sensor_type;location;lat;lon;timestamp;temperature;humidity
70074;DHT22;57445;51.058;3.698;2023-05-07T00:00:40;19.70;82.40
70074;DHT22;57445;51.058;3.698;2023-05-07T00:03:08;19.90;82.10
70074;DHT22;57445;51.058;3.698;2023-05-07T00:05:37;19.90;81.70
70074;DHT22;57445;51.058;3.698;2023-05-07T00:08:10;19.70;82.40
70074;DHT22;57445;51.058;3.698;2023-05-07T00:10:37;19.70;82.40
70074;DHT22;57445;51.058;3.698;2023-05-07T00:13:06;19.50;82.80
70074;DHT22;57445;51.058;3.698;2023-05-07T00:15:34;19.60;82.80
70074;DHT22;57445;51.058;3.698;2023-05-07T00:18:01;19.60;82.30
70074;DHT22;57445;51.058;3.698;2023-05-07T00:20:29;19.70;82.30
70074;DHT22;57445;51.058;3.698;2023-05-07T00:22:57;19.70;82.00
70074;DHT22;57445;51.058;3.698;2023-05-07T00:25:24;19.70;82.40
70074;DHT22;57445;51.058;3.698;2023-05-07T00:27:56;19.60;81.80
70074;DHT22;57445;51.058;3.698;2023-05-07T00:30:33;19.80;82.00
70074;DHT22;57445;51.058;3.698;2023-05-07T00:33:00;19.80;81.40
70074;DHT22;57445;51.058;3.698;2023-05-07T00:35:28;19.90;81.20
70074;DHT22;57445;51.058;3.698;2023-05-07T00:37:56;19.70;82.20
70074;DHT22;57445;51.058;3.698;2023-05-07T00:40:23;19.60;82.50
70074;DHT22;57445;51.058;3.698;2023-05-07T00:42:51;19.40;83.20
70074;DHT22;57445;51.058;3.698;2023-05-07T00:45:24;19.40;83.40
70074;DHT22;57445;51.058;3.698;2023-05-07T00:47:55;19.40;83.60
70074;DHT22;57445;51.058;3.698;2023-05-07T00:50:23;19.40;83.80
70074;DHT22;57445;51.058;3.698;2023-05-07T00:52:51;19.50;83.40
70074;DHT22;57445;51.058;3.698;2023-05-07T00:55:18;19.50;83.30
70074;DHT22;57445;51.058;3.698;2023-05-07T00:57:46;19.40;83.90
70074;DHT22;57445;51.058;3.698;2023-05-07T01:00:14;19.40;83.70
70074;DHT22;57445;51.058;3.698;2023-05-07T01:02:42;19.70;82.90
70074;DHT22;57445;51.058;3.698;2023-05-07T01:05:11;19.60;83.10
70074;DHT22;57445;51.058;3.698;2023-05-07T01:07:40;19.50;83.50
70074;DHT22;57445;51.058;3.698;2023-05-07T01:10:08;19.50;83.40
70074;DHT22;57445;51.058;3.698;2023-05-07T01:12:36;19.50;83.70
70074;DHT22;57445;51.058;3.698;2023-05-07T01:15:05;19.30;84.40
70074;DHT22;57445;51.058;3.698;2023-05-07T01:17:33;19.40;82.80
70074;DHT22;57445;51.058;3.698;2023-05-07T01:20:01;19.30;83.30
70074;DHT22;57445;51.058;3.698;2023-05-07T01:22:36;19.20;83.90
70074;DHT22;57445;51.058;3.698;2023-05-07T01:25:04;19.10;84.00
70074;DHT22;57445;51.058;3.698;2023-05-07T01:27:32;19.30;83.40
70074;DHT22;57445;51.058;3.698;2023-05-07T01:30:01;19.40;83.30
70074;DHT22;57445;51.058;3.698;2023-05-07T01:32:35;19.60;82.50
70074;DHT22;57445;51.058;3.698;2023-05-07T01:35:05;19.60;82.40
70074;DHT22;57445;51.058;3.698;2023-05-07T01:37:35;19.60;82.50
70074;DHT22;57445;51.058;3.698;2023-05-07T01:40:04;19.70;82.00
70074;DHT22;57445;51.058;3.698;2023-05-07T01:42:33;19.70;82.00
70074;DHT22;57445;51.058;3.698;2023-05-07T01:45:00;19.60;82.40
70074;DHT22;57445;51.058;3.698;2023-05-07T01:47:36;19.60;82.00
70074;DHT22;57445;51.058;3.698;2023-05-07T01:50:04;19.70;81.70
70074;DHT22;57445;51.058;3.698;2023-05-07T01:52:35;19.60;82.10
70074;DHT22;57445;51.058;3.698;2023-05-07T01:55:08;19.50;82.40
70074;DHT22;57445;51.058;3.698;2023-05-07T01:57:35;19.50;82.10
70074;DHT22;57445;51.058;3.698;2023-05-07T02:00:08;19.50;81.90
70074;DHT22;57445;51.058;3.698;2023-05-07T02:02:35;19.60;82.00
70074;DHT22;57445;51.058;3.698;2023-05-07T02:05:05;19.60;82.20
70074;DHT22;57445;51.058;3.698;2023-05-07T02:07:39;19.50;82.10
70074;DHT22;57445;51.058;3.698;2023-05-07T02:10:06;19.40;82.50
70074;DHT22;57445;51.058;3.698;2023-05-07T02:12:34;19.40;82.80
70074;DHT22;57445;51.058;3.698;2023-05-07T02:15:02;19.30;82.90
70074;DHT22;57445;51.058;3.698;2023-05-07T02:17:30;19.20;83.30
70074;DHT22;57445;51.058;3.698;2023-05-07T02:19:59;19.10;83.70
70074;DHT22;57445;51.058;3.698;2023-05-07T02:22:26;18.90;84.40
70074;DHT22;57445;51.058;3.698;2023-05-07T02:24:55;19.00;84.20
70074;DHT22;57445;51.058;3.698;2023-05-07T02:27:23;19.20;83.60
70074;DHT22;57445;51.058;3.698;2023-05-07T02:29:50;19.20;83.80
70074;DHT22;57445;51.058;3.698;2023-05-07T02:32:18;19.20;83.70
70074;DHT22;57445;51.058;3.698;2023-05-07T02:34:46;19.10;84.20
70074;DHT22;57445;51.058;3.698;2023-05-07T02:37:13;18.90;84.50
70074;DHT22;57445;51.058;3.698;2023-05-07T02:39:41;18.90;85.20
70074;DHT22;57445;51.058;3.698;2023-05-07T02:42:10;18.60;85.70
70074;DHT22;57445;51.058;3.698;2023-05-07T02:44:37;18.60;85.80
70074;DHT22;57445;51.058;3.698;2023-05-07T02:47:05;18.60;85.70
70074;DHT22;57445;51.058;3.698;2023-05-07T02:49:34;18.50;85.80
70074;DHT22;57445;51.058;3.698;2023-05-07T02:52:01;18.60;85.30
70074;DHT22;57445;51.058;3.698;2023-05-07T02:54:29;18.70;85.00
70074;DHT22;57445;51.058;3.698;2023-05-07T02:56:57;18.90;84.60
70074;DHT22;57445;51.058;3.698;2023-05-07T02:59:28;19.00;83.70
70074;DHT22;57445;51.058;3.698;2023-05-07T03:01:55;19.10;83.20
70074;DHT22;57445;51.058;3.698;2023-05-07T03:04:23;19.20;83.40
70074;DHT22;57445;51.058;3.698;2023-05-07T03:06:50;19.10;83.70
70074;DHT22;57445;51.058;3.698;2023-05-07T03:09:18;19.00;84.00
70074;DHT22;57445;51.058;3.698;2023-05-07T03:11:45;19.00;84.30
70074;DHT22;57445;51.058;3.698;2023-05-07T03:14:17;19.00;84.20
70074;DHT22;57445;51.058;3.698;2023-05-07T03:16:46;19.00;84.30
70074;DHT22;57445;51.058;3.698;2023-05-07T03:19:14;19.10;83.90
70074;DHT22;57445;51.058;3.698;2023-05-07T03:21:42;19.10;83.70
70074;DHT22;57445;51.058;3.698;2023-05-07T03:24:09;19.20;83.40
70074;DHT22;57445;51.058;3.698;2023-05-07T03:26:37;19.20;83.50
70074;DHT22;57445;51.058;3.698;2023-05-07T03:29:09;19.10;83.40
70074;DHT22;57445;51.058;3.698;2023-05-07T03:31:36;19.10;83.70
70074;DHT22;57445;51.058;3.698;2023-05-07T03:34:06;19.00;84.00
70074;DHT22;57445;51.058;3.698;2023-05-07T03:36:38;19.00;83.90
70074;DHT22;57445;51.058;3.698;2023-05-07T03:39:06;19.00;84.00
70074;DHT22;57445;51.058;3.698;2023-05-07T03:41:34;19.10;84.00
70074;DHT22;57445;51.058;3.698;2023-05-07T03:44:01;19.00;84.00
70074;DHT22;57445;51.058;3.698;2023-05-07T03:46:29;19.00;83.90
70074;DHT22;57445;51.058;3.698;2023-05-07T03:48:58;19.10;83.90
70074;DHT22;57445;51.058;3.698;2023-05-07T03:51:28;18.90;83.70
70074;DHT22;57445;51.058;3.698;2023-05-07T03:54:00;19.10;83.80
70074;DHT22;57445;51.058;3.698;2023-05-07T03:56:28;19.00;84.30
70074;DHT22;57445;51.058;3.698;2023-05-07T03:58:59;18.90;84.70
70074;DHT22;57445;51.058;3.698;2023-05-07T04:01:27;19.00;85.00
70074;DHT22;57445;51.058;3.698;2023-05-07T04:03:59;19.20;84.40
70074;DHT22;57445;51.058;3.698;2023-05-07T04:06:28;19.20;84.40
70074;DHT22;57445;51.058;3.698;2023-05-07T04:08:56;19.20;84.10
70074;DHT22;57445;51.058;3.698;2023-05-07T04:11:24;19.10;84.60
70074;DHT22;57445;51.058;3.698;2023-05-07T04:13:52;18.90;85.90
70074;DHT22;57445;51.058;3.698;2023-05-07T04:16:19;18.60;87.80
70074;DHT22;57445;51.058;3.698;2023-05-07T04:18:51;18.40;90.00
70074;DHT22;57445;51.058;3.698;2023-05-07T04:21:19;18.30;90.30
70074;DHT22;57445;51.058;3.698;2023-05-07T04:23:49;18.30;90.50
70074;DHT22;57445;51.058;3.698;2023-05-07T04:26:16;18.40;90.50
70074;DHT22;57445;51.058;3.698;2023-05-07T04:28:44;18.40;90.60
70074;DHT22;57445;51.058;3.698;2023-05-07T04:31:11;18.60;90.70
70074;DHT22;57445;51.058;3.698;2023-05-07T04:33:44;18.60;90.70
70074;DHT22;57445;51.058;3.698;2023-05-07T04:36:11;18.70;90.50
70074;DHT22;57445;51.058;3.698;2023-05-07T04:38:39;18.70;90.60
70074;DHT22;57445;51.058;3.698;2023-05-07T04:41:08;18.80;90.50
70074;DHT22;57445;51.058;3.698;2023-05-07T04:43:36;18.70;90.50
70074;DHT22;57445;51.058;3.698;2023-05-07T04:46:04;18.80;90.70
70074;DHT22;57445;51.058;3.698;2023-05-07T04:48:31;18.90;90.70
70074;DHT22;57445;51.058;3.698;2023-05-07T04:50:59;18.80;90.80
70074;DHT22;57445;51.058;3.698;2023-05-07T04:53:26;18.60;91.10
70074;DHT22;57445;51.058;3.698;2023-05-07T04:55:54;18.60;91.30
70074;DHT22;57445;51.058;3.698;2023-05-07T04:58:28;18.70;91.40
70074;DHT22;57445;51.058;3.698;2023-05-07T05:00:57;18.70;91.30
70074;DHT22;57445;51.058;3.698;2023-05-07T05:03:25;18.70;91.40
70074;DHT22;57445;51.058;3.698;2023-05-07T05:05:57;18.80;91.20
70074;DHT22;57445;51.058;3.698;2023-05-07T05:08:26;19.10;90.90
70074;DHT22;57445;51.058;3.698;2023-05-07T05:10:53;19.20;90.70
70074;DHT22;57445;51.058;3.698;2023-05-07T05:13:21;19.30;91.20
70074;DHT22;57445;51.058;3.698;2023-05-07T05:15:50;19.20;90.90
70074;DHT22;57445;51.058;3.698;2023-05-07T05:18:17;19.20;90.50
70074;DHT22;57445;51.058;3.698;2023-05-07T05:20:45;19.00;90.90
70074;DHT22;57445;51.058;3.698;2023-05-07T05:23:12;19.10;91.10
70074;DHT22;57445;51.058;3.698;2023-05-07T05:25:40;19.10;90.80
70074;DHT22;57445;51.058;3.698;2023-05-07T05:28:08;19.00;90.80
70074;DHT22;57445;51.058;3.698;2023-05-07T05:30:36;19.00;90.20
70074;DHT22;57445;51.058;3.698;2023-05-07T05:33:09;18.90;90.90
70074;DHT22;57445;51.058;3.698;2023-05-07T05:35:37;18.60;91.20
70074;DHT22;57445;51.058;3.698;2023-05-07T05:38:05;18.60;91.50
70074;DHT22;57445;51.058;3.698;2023-05-07T05:40:32;19.00;90.80
70074;DHT22;57445;51.058;3.698;2023-05-07T05:43:00;18.90;91.20
70074;DHT22;57445;51.058;3.698;2023-05-07T05:45:32;18.90;91.60
70074;DHT22;57445;51.058;3.698;2023-05-07T05:48:00;18.90;91.80
70074;DHT22;57445;51.058;3.698;2023-05-07T05:50:29;19.10;91.60
70074;DHT22;57445;51.058;3.698;2023-05-07T05:52:57;19.30;91.30
70074;DHT22;57445;51.058;3.698;2023-05-07T05:55:24;19.40;90.90
70074;DHT22;57445;51.058;3.698;2023-05-07T05:57:52;19.30;91.20
70074;DHT22;57445;51.058;3.698;2023-05-07T06:00:20;19.30;91.30
70074;DHT22;57445;51.058;3.698;2023-05-07T06:02:50;19.30;91.30
70074;DHT22;57445;51.058;3.698;2023-05-07T06:05:17;19.20;91.30
70074;DHT22;57445;51.058;3.698;2023-05-07T06:07:47;19.20;91.90
70074;DHT22;57445;51.058;3.698;2023-05-07T06:10:15;19.40;91.50
70074;DHT22;57445;51.058;3.698;2023-05-07T06:12:43;19.40;92.10
70074;DHT22;57445;51.058;3.698;2023-05-07T06:15:10;19.20;92.70
70074;DHT22;57445;51.058;3.698;2023-05-07T06:17:38;19.00;92.90
70074;DHT22;57445;51.058;3.698;2023-05-07T06:20:06;19.00;93.30
70074;DHT22;57445;51.058;3.698;2023-05-07T06:22:34;19.00;93.90
70074;DHT22;57445;51.058;3.698;2023-05-07T06:25:03;19.10;93.90
70074;DHT22;57445;51.058;3.698;2023-05-07T06:27:31;19.20;93.70
70074;DHT22;57445;51.058;3.698;2023-05-07T06:29:58;19.30;93.70
70074;DHT22;57445;51.058;3.698;2023-05-07T06:32:26;19.30;94.00
70074;DHT22;57445;51.058;3.698;2023-05-07T06:34:54;19.10;94.40
70074;DHT22;57445;51.058;3.698;2023-05-07T06:37:21;18.90;94.90
70074;DHT22;57445;51.058;3.698;2023-05-07T06:39:49;18.90;95.50
70074;DHT22;57445;51.058;3.698;2023-05-07T06:42:18;19.00;95.50
70074;DHT22;57445;51.058;3.698;2023-05-07T06:44:46;19.10;95.50
70074;DHT22;57445;51.058;3.698;2023-05-07T06:47:14;19.10;95.60
70074;DHT22;57445;51.058;3.698;2023-05-07T06:49:43;18.90;96.20
70074;DHT22;57445;51.058;3.698;2023-05-07T06:52:10;19.00;95.70
70074;DHT22;57445;51.058;3.698;2023-05-07T06:54:40;18.80;96.10
70074;DHT22;57445;51.058;3.698;2023-05-07T06:57:07;18.90;96.20
70074;DHT22;57445;51.058;3.698;2023-05-07T06:59:37;19.00;96.50
70074;DHT22;57445;51.058;3.698;2023-05-07T07:02:04;19.30;96.20
70074;DHT22;57445;51.058;3.698;2023-05-07T07:04:32;19.40;95.50
70074;DHT22;57445;51.058;3.698;2023-05-07T07:06:59;19.40;95.70
70074;DHT22;57445;51.058;3.698;2023-05-07T07:09:31;19.40;95.60
70074;DHT22;57445;51.058;3.698;2023-05-07T07:11:58;19.50;95.70
70074;DHT22;57445;51.058;3.698;2023-05-07T07:14:26;19.60;95.50
70074;DHT22;57445;51.058;3.698;2023-05-07T07:16:56;19.60;95.80
70074;DHT22;57445;51.058;3.698;2023-05-07T07:19:23;19.70;95.50
70074;DHT22;57445;51.058;3.698;2023-05-07T07:21:56;19.80;95.70
70074;DHT22;57445;51.058;3.698;2023-05-07T07:24:23;19.90;95.10
70074;DHT22;57445;51.058;3.698;2023-05-07T07:26:51;20.00;95.10
70074;DHT22;57445;51.058;3.698;2023-05-07T07:29:19;20.10;94.90
70074;DHT22;57445;51.058;3.698;2023-05-07T07:31:47;19.80;95.50
70074;DHT22;57445;51.058;3.698;2023-05-07T07:34:16;19.30;95.70
70074;DHT22;57445;51.058;3.698;2023-05-07T07:36:44;19.90;95.40
70074;DHT22;57445;51.058;3.698;2023-05-07T07:39:12;20.10;95.00
70074;DHT22;57445;51.058;3.698;2023-05-07T07:41:41;20.10;94.90
70074;DHT22;57445;51.058;3.698;2023-05-07T07:44:09;20.10;94.80
70074;DHT22;57445;51.058;3.698;2023-05-07T07:46:39;20.10;94.80
70074;DHT22;57445;51.058;3.698;2023-05-07T07:49:07;20.20;95.00
70074;DHT22;57445;51.058;3.698;2023-05-07T07:51:36;20.20;94.60
70074;DHT22;57445;51.058;3.698;2023-05-07T07:54:03;20.00;95.00
70074;DHT22;57445;51.058;3.698;2023-05-07T07:56:31;20.00;95.40
70074;DHT22;57445;51.058;3.698;2023-05-07T07:58:59;19.80;95.50
70074;DHT22;57445;51.058;3.698;2023-05-07T08:01:27;19.80;95.90
70074;DHT22;57445;51.058;3.698;2023-05-07T08:03:54;20.00;96.00
70074;DHT22;57445;51.058;3.698;2023-05-07T08:06:24;20.20;95.50
70074;DHT22;57445;51.058;3.698;2023-05-07T08:08:53;20.30;95.40
70074;DHT22;57445;51.058;3.698;2023-05-07T08:11:23;20.60;94.70
70074;DHT22;57445;51.058;3.698;2023-05-07T08:13:51;20.50;94.60
70074;DHT22;57445;51.058;3.698;2023-05-07T08:16:19;20.50;94.50
70074;DHT22;57445;51.058;3.698;2023-05-07T08:18:47;20.30;94.80
70074;DHT22;57445;51.058;3.698;2023-05-07T08:21:14;20.30;95.00
70074;DHT22;57445;51.058;3.698;2023-05-07T08:23:42;20.40;94.90
70074;DHT22;57445;51.058;3.698;2023-05-07T08:26:13;20.40;94.80
70074;DHT22;57445;51.058;3.698;2023-05-07T08:28:42;20.60;94.50
70074;DHT22;57445;51.058;3.698;2023-05-07T08:31:09;20.70;94.70
70074;DHT22;57445;51.058;3.698;2023-05-07T08:33:37;20.80;94.40
70074;DHT22;57445;51.058;3.698;2023-05-07T08:36:05;20.80;94.20
70074;DHT22;57445;51.058;3.698;2023-05-07T08:38:34;20.90;94.40
70074;DHT22;57445;51.058;3.698;2023-05-07T08:41:02;20.90;93.90
70074;DHT22;57445;51.058;3.698;2023-05-07T08:43:31;21.00;94.00
70074;DHT22;57445;51.058;3.698;2023-05-07T08:46:00;21.00;93.70
70074;DHT22;57445;51.058;3.698;2023-05-07T08:48:29;20.70;93.70
70074;DHT22;57445;51.058;3.698;2023-05-07T08:50:57;20.90;94.10
70074;DHT22;57445;51.058;3.698;2023-05-07T08:53:25;21.20;93.30
70074;DHT22;57445;51.058;3.698;2023-05-07T08:55:53;21.40;93.00
70074;DHT22;57445;51.058;3.698;2023-05-07T08:58:22;21.30;93.30
70074;DHT22;57445;51.058;3.698;2023-05-07T09:00:55;21.40;93.30
70074;DHT22;57445;51.058;3.698;2023-05-07T09:03:22;21.50;93.20
70074;DHT22;57445;51.058;3.698;2023-05-07T09:05:50;21.70;92.70
70074;DHT22;57445;51.058;3.698;2023-05-07T09:08:18;21.60;93.00
70074;DHT22;57445;51.058;3.698;2023-05-07T09:10:46;21.70;92.90
70074;DHT22;57445;51.058;3.698;2023-05-07T09:13:15;21.80;92.60
70074;DHT22;57445;51.058;3.698;2023-05-07T09:15:44;21.90;92.40
70074;DHT22;57445;51.058;3.698;2023-05-07T09:18:13;21.90;92.60
70074;DHT22;57445;51.058;3.698;2023-05-07T09:20:41;21.90;92.10
70074;DHT22;57445;51.058;3.698;2023-05-07T09:23:09;21.90;92.60
70074;DHT22;57445;51.058;3.698;2023-05-07T09:25:37;22.10;92.00
70074;DHT22;57445;51.058;3.698;2023-05-07T09:28:05;22.10;91.90
70074;DHT22;57445;51.058;3.698;2023-05-07T09:30:33;22.10;92.20
70074;DHT22;57445;51.058;3.698;2023-05-07T09:33:02;22.00;92.20
70074;DHT22;57445;51.058;3.698;2023-05-07T09:35:31;22.10;92.20
70074;DHT22;57445;51.058;3.698;2023-05-07T09:37:59;22.50;91.60
70074;DHT22;57445;51.058;3.698;2023-05-07T09:40:27;22.30;91.30
70074;DHT22;57445;51.058;3.698;2023-05-07T09:42:55;22.40;91.60
70074;DHT22;57445;51.058;3.698;2023-05-07T09:45:27;22.40;91.20
70074;DHT22;57445;51.058;3.698;2023-05-07T09:47:55;22.30;91.50
70074;DHT22;57445;51.058;3.698;2023-05-07T09:50:29;22.50;91.10
70074;DHT22;57445;51.058;3.698;2023-05-07T09:52:58;22.70;90.10
70074;DHT22;57445;51.058;3.698;2023-05-07T09:55:30;22.90;90.60
70074;DHT22;57445;51.058;3.698;2023-05-07T09:57:58;22.90;90.50
70074;DHT22;57445;51.058;3.698;2023-05-07T10:00:26;23.20;90.20
70074;DHT22;57445;51.058;3.698;2023-05-07T10:02:57;23.40;89.20
70074;DHT22;57445;51.058;3.698;2023-05-07T10:05:25;23.50;89.10
70074;DHT22;57445;51.058;3.698;2023-05-07T10:07:53;23.70;88.20
70074;DHT22;57445;51.058;3.698;2023-05-07T10:10:23;23.90;87.90
70074;DHT22;57445;51.058;3.698;2023-05-07T10:12:51;23.80;86.50
70074;DHT22;57445;51.058;3.698;2023-05-07T10:15:19;23.60;87.60
70074;DHT22;57445;51.058;3.698;2023-05-07T10:17:47;23.70;88.50
70074;DHT22;57445;51.058;3.698;2023-05-07T10:20:15;24.10;87.80
70074;DHT22;57445;51.058;3.698;2023-05-07T10:22:43;24.20;87.10
70074;DHT22;57445;51.058;3.698;2023-05-07T10:25:16;24.50;85.70
70074;DHT22;57445;51.058;3.698;2023-05-07T10:27:46;24.50;85.30
70074;DHT22;57445;51.058;3.698;2023-05-07T10:30:17;24.50;86.20
70074;DHT22;57445;51.058;3.698;2023-05-07T10:32:50;24.80;85.90
70074;DHT22;57445;51.058;3.698;2023-05-07T10:35:20;25.10;85.90
70074;DHT22;57445;51.058;3.698;2023-05-07T10:37:48;25.40;84.80
70074;DHT22;57445;51.058;3.698;2023-05-07T10:40:17;25.50;82.70
70074;DHT22;57445;51.058;3.698;2023-05-07T10:42:57;25.10;83.50
70074;DHT22;57445;51.058;3.698;2023-05-07T10:45:26;24.90;85.00
70074;DHT22;57445;51.058;3.698;2023-05-07T10:48:07;24.70;85.20
70074;DHT22;57445;51.058;3.698;2023-05-07T10:50:36;25.20;83.00
70074;DHT22;57445;51.058;3.698;2023-05-07T10:53:23;25.30;83.40
70074;DHT22;57445;51.058;3.698;2023-05-07T10:58:37;25.10;83.10
70074;DHT22;57445;51.058;3.698;2023-05-07T11:01:04;25.10;81.40
70074;DHT22;57445;51.058;3.698;2023-05-07T11:03:37;25.00;82.30
70074;DHT22;57445;51.058;3.698;2023-05-07T11:06:24;25.10;82.20
70074;DHT22;57445;51.058;3.698;2023-05-07T11:14:11;25.00;82.70
70074;DHT22;57445;51.058;3.698;2023-05-07T11:16:39;24.90;82.90
70074;DHT22;57445;51.058;3.698;2023-05-07T11:19:07;25.10;83.10
70074;DHT22;57445;51.058;3.698;2023-05-07T11:21:35;25.10;82.80
70074;DHT22;57445;51.058;3.698;2023-05-07T11:24:03;25.50;82.50
70074;DHT22;57445;51.058;3.698;2023-05-07T11:26:36;25.50;79.60
70074;DHT22;57445;51.058;3.698;2023-05-07T11:29:14;25.70;80.50
70074;DHT22;57445;51.058;3.698;2023-05-07T11:31:43;26.00;80.30
70074;DHT22;57445;51.058;3.698;2023-05-07T11:34:11;25.80;79.20
70074;DHT22;57445;51.058;3.698;2023-05-07T11:36:42;25.40;79.80
70074;DHT22;57445;51.058;3.698;2023-05-07T11:39:24;25.60;80.30
70074;DHT22;57445;51.058;3.698;2023-05-07T11:41:56;25.60;80.10
70074;DHT22;57445;51.058;3.698;2023-05-07T11:44:27;25.40;82.00
70074;DHT22;57445;51.058;3.698;2023-05-07T11:47:06;25.50;81.90
70074;DHT22;57445;51.058;3.698;2023-05-07T11:49:34;24.90;81.90
70074;DHT22;57445;51.058;3.698;2023-05-07T11:52:01;24.50;82.60
70074;DHT22;57445;51.058;3.698;2023-05-07T11:54:34;24.40;83.40
70074;DHT22;57445;51.058;3.698;2023-05-07T11:57:02;24.00;84.70
70074;DHT22;57445;51.058;3.698;2023-05-07T11:59:31;23.80;86.70
70074;DHT22;57445;51.058;3.698;2023-05-07T12:02:06;24.40;85.60
70074;DHT22;57445;51.058;3.698;2023-05-07T12:04:34;24.90;83.40
70074;DHT22;57445;51.058;3.698;2023-05-07T12:07:08;24.90;81.20
70074;DHT22;57445;51.058;3.698;2023-05-07T12:09:38;25.30;81.80
70074;DHT22;57445;51.058;3.698;2023-05-07T12:12:07;25.50;80.80
70074;DHT22;57445;51.058;3.698;2023-05-07T12:14:38;26.20;79.60
70074;DHT22;57445;51.058;3.698;2023-05-07T12:17:11;26.50;77.60
70074;DHT22;57445;51.058;3.698;2023-05-07T12:19:40;26.70;75.50
70074;DHT22;57445;51.058;3.698;2023-05-07T12:22:08;27.20;75.60
70074;DHT22;57445;51.058;3.698;2023-05-07T12:24:45;27.40;74.30
70074;DHT22;57445;51.058;3.698;2023-05-07T12:27:18;27.40;76.00
70074;DHT22;57445;51.058;3.698;2023-05-07T12:29:51;27.20;76.20
70074;DHT22;57445;51.058;3.698;2023-05-07T12:32:23;26.70;75.90
70074;DHT22;57445;51.058;3.698;2023-05-07T12:34:51;27.10;75.20
70074;DHT22;57445;51.058;3.698;2023-05-07T12:37:23;27.40;73.70
70074;DHT22;57445;51.058;3.698;2023-05-07T12:40:03;27.50;74.40
70074;DHT22;57445;51.058;3.698;2023-05-07T12:42:37;27.80;74.00
70074;DHT22;57445;51.058;3.698;2023-05-07T12:45:10;27.90;73.10
70074;DHT22;57445;51.058;3.698;2023-05-07T12:47:38;27.90;72.90
70074;DHT22;57445;51.058;3.698;2023-05-07T12:50:06;27.60;73.80
70074;DHT22;57445;51.058;3.698;2023-05-07T12:52:34;27.70;71.20
70074;DHT22;57445;51.058;3.698;2023-05-07T12:55:04;27.30;72.80
70074;DHT22;57445;51.058;3.698;2023-05-07T12:57:39;27.30;73.70
70074;DHT22;57445;51.058;3.698;2023-05-07T13:00:13;27.10;73.80
70074;DHT22;57445;51.058;3.698;2023-05-07T13:02:42;25.30;76.20
70074;DHT22;57445;51.058;3.698;2023-05-07T13:05:10;25.50;77.00
70074;DHT22;57445;51.058;3.698;2023-05-07T13:07:38;25.90;78.40
70074;DHT22;57445;51.058;3.698;2023-05-07T13:10:07;26.40;77.00
70074;DHT22;57445;51.058;3.698;2023-05-07T13:12:35;27.10;73.80
70074;DHT22;57445;51.058;3.698;2023-05-07T13:15:09;27.60;71.80
70074;DHT22;57445;51.058;3.698;2023-05-07T13:17:38;27.60;71.50
70074;DHT22;57445;51.058;3.698;2023-05-07T13:20:10;27.80;71.00
70074;DHT22;57445;51.058;3.698;2023-05-07T13:22:39;27.70;72.80
70074;DHT22;57445;51.058;3.698;2023-05-07T13:25:07;27.80;71.60
70074;DHT22;57445;51.058;3.698;2023-05-07T13:27:39;27.50;70.80
70074;DHT22;57445;51.058;3.698;2023-05-07T13:30:07;27.00;71.80
70074;DHT22;57445;51.058;3.698;2023-05-07T13:32:34;27.30;71.60
70074;DHT22;57445;51.058;3.698;2023-05-07T13:35:04;27.60;71.50
70074;DHT22;57445;51.058;3.698;2023-05-07T13:37:32;26.90;72.20
70074;DHT22;57445;51.058;3.698;2023-05-07T13:40:04;26.60;72.90
70074;DHT22;57445;51.058;3.698;2023-05-07T13:42:32;25.70;75.50
70074;DHT22;57445;51.058;3.698;2023-05-07T13:45:01;26.20;75.00
70074;DHT22;57445;51.058;3.698;2023-05-07T13:47:34;26.60;74.30
70074;DHT22;57445;51.058;3.698;2023-05-07T13:50:04;26.70;73.80
70074;DHT22;57445;51.058;3.698;2023-05-07T13:52:32;26.70;73.10
70074;DHT22;57445;51.058;3.698;2023-05-07T13:54:59;26.40;73.50
70074;DHT22;57445;51.058;3.698;2023-05-07T13:57:27;25.70;74.50
70074;DHT22;57445;51.058;3.698;2023-05-07T13:59:54;25.20;74.90
70074;DHT22;57445;51.058;3.698;2023-05-07T14:02:22;24.70;76.00
70074;DHT22;57445;51.058;3.698;2023-05-07T14:04:49;24.10;77.60
70074;DHT22;57445;51.058;3.698;2023-05-07T14:07:18;23.50;79.90
70074;DHT22;57445;51.058;3.698;2023-05-07T14:09:46;23.20;81.60
70074;DHT22;57445;51.058;3.698;2023-05-07T14:12:14;23.20;82.20
70074;DHT22;57445;51.058;3.698;2023-05-07T14:14:41;23.60;80.90
70074;DHT22;57445;51.058;3.698;2023-05-07T14:17:09;23.10;83.90
70074;DHT22;57445;51.058;3.698;2023-05-07T14:19:41;22.50;86.40
70074;DHT22;57445;51.058;3.698;2023-05-07T14:22:08;22.30;89.10
70074;DHT22;57445;51.058;3.698;2023-05-07T14:24:37;22.00;90.40
70074;DHT22;57445;51.058;3.698;2023-05-07T14:27:05;21.60;91.70
70074;DHT22;57445;51.058;3.698;2023-05-07T14:29:33;21.70;92.00
70074;DHT22;57445;51.058;3.698;2023-05-07T14:32:01;21.70;92.10
70074;DHT22;57445;51.058;3.698;2023-05-07T14:34:29;21.60;92.50
70074;DHT22;57445;51.058;3.698;2023-05-07T14:36:57;21.50;92.70
70074;DHT22;57445;51.058;3.698;2023-05-07T14:39:25;21.80;92.20
70074;DHT22;57445;51.058;3.698;2023-05-07T14:41:54;21.80;91.70
70074;DHT22;57445;51.058;3.698;2023-05-07T14:44:22;22.30;90.80
70074;DHT22;57445;51.058;3.698;2023-05-07T14:46:49;22.90;90.50
70074;DHT22;57445;51.058;3.698;2023-05-07T14:49:17;23.00;90.30
70074;DHT22;57445;51.058;3.698;2023-05-07T14:51:50;23.20;90.20
70074;DHT22;57445;51.058;3.698;2023-05-07T14:54:18;23.10;90.20
70074;DHT22;57445;51.058;3.698;2023-05-07T14:56:45;23.00;90.30
70074;DHT22;57445;51.058;3.698;2023-05-07T14:59:14;23.10;90.60
70074;DHT22;57445;51.058;3.698;2023-05-07T15:01:45;23.60;90.00
70074;DHT22;57445;51.058;3.698;2023-05-07T15:04:12;24.10;88.00
70074;DHT22;57445;51.058;3.698;2023-05-07T15:06:42;24.30;86.80
70074;DHT22;57445;51.058;3.698;2023-05-07T15:09:13;24.60;85.80
70074;DHT22;57445;51.058;3.698;2023-05-07T15:11:41;24.80;85.00
70074;DHT22;57445;51.058;3.698;2023-05-07T15:14:09;25.10;85.10
70074;DHT22;57445;51.058;3.698;2023-05-07T15:16:38;25.30;84.30
70074;DHT22;57445;51.058;3.698;2023-05-07T15:19:10;25.70;83.30
70074;DHT22;57445;51.058;3.698;2023-05-07T15:21:37;26.10;82.10
70074;DHT22;57445;51.058;3.698;2023-05-07T15:24:06;26.20;80.80
70074;DHT22;57445;51.058;3.698;2023-05-07T15:26:33;26.00;81.00
70074;DHT22;57445;51.058;3.698;2023-05-07T15:29:05;26.10;80.60
70074;DHT22;57445;51.058;3.698;2023-05-07T15:31:41;26.30;80.90
70074;DHT22;57445;51.058;3.698;2023-05-07T15:34:09;26.00;81.50
70074;DHT22;57445;51.058;3.698;2023-05-07T15:36:37;25.90;82.10
70074;DHT22;57445;51.058;3.698;2023-05-07T15:39:04;25.80;81.80
70074;DHT22;57445;51.058;3.698;2023-05-07T15:41:32;25.80;82.30
70074;DHT22;57445;51.058;3.698;2023-05-07T15:43:59;25.80;81.80
70074;DHT22;57445;51.058;3.698;2023-05-07T15:46:31;25.60;81.30
70074;DHT22;57445;51.058;3.698;2023-05-07T15:49:00;25.50;82.80